sensor_id;sensor_type;location;lat;lon;timestamp;P1;durP1;ratioP1;P2;durP2;ratioP2
55082;SDS011;40978;52.850;6.506;2023-03-23T00:02:19;10.23;;;8.18;;
55082;SDS011;40978;52.850;6.506;2023-03-23T00:04:49;11.85;;;7.80;;
55082;SDS011;40978;52.850;6.506;2023-03-23T00:07:15;11.80;;;7.25;;
55082;SDS011;40978;52.850;6.506;2023-03-23T00:09:46;10.50;;;7.20;;
55082;SDS011;40978;52.850;6.506;2023-03-23T00:12:29;9.35;;;6.65;;
55082;SDS011;40978;52.850;6.506;2023-03-23T00:15:00;11.55;;;7.60;;
55082;SDS011;40978;52.850;6.506;2023-03-23T00:17:27;13.23;;;7.20;;
55082;SDS011;40978;52.850;6.506;2023-03-23T00:19:53;11.23;;;7.18;;
55082;SDS011;40978;52.850;6.506;2023-03-23T00:22:19;11.65;;;6.82;;
55082;SDS011;40978;52.850;6.506;2023-03-23T00:24:50;9.38;;;6.90;;
55082;SDS011;40978;52.850;6.506;2023-03-23T00:27:17;9.48;;;7.18;;
55082;SDS011;40978;52.850;6.506;2023-03-23T00:29:43;10.80;;;6.40;;
55082;SDS011;40978;52.850;6.506;2023-03-23T00:32:10;12.75;;;6.97;;
55082;SDS011;40978;52.850;6.506;2023-03-23T00:34:39;10.82;;;6.45;;
55082;SDS011;40978;52.850;6.506;2023-03-23T00:37:06;7.65;;;6.28;;
55082;SDS011;40978;52.850;6.506;2023-03-23T00:39:32;8.75;;;6.20;;
55082;SDS011;40978;52.850;6.506;2023-03-23T00:42:01;11.18;;;6.47;;
55082;SDS011;40978;52.850;6.506;2023-03-23T00:44:28;7.95;;;5.75;;
55082;SDS011;40978;52.850;6.506;2023-03-23T00:46:55;9.85;;;6.07;;
55082;SDS011;40978;52.850;6.506;2023-03-23T00:49:22;8.25;;;5.80;;
55082;SDS011;40978;52.850;6.506;2023-03-23T00:51:50;9.95;;;5.47;;
55082;SDS011;40978;52.850;6.506;2023-03-23T00:54:17;11.80;;;6.53;;
55082;SDS011;40978;52.850;6.506;2023-03-23T00:56:42;11.07;;;5.13;;
55082;SDS011;40978;52.850;6.506;2023-03-23T00:59:08;8.73;;;5.07;;
55082;SDS011;40978;52.850;6.506;2023-03-23T01:01:34;6.20;;;4.72;;
55082;SDS011;40978;52.850;6.506;2023-03-23T01:04:00;8.48;;;5.53;;
55082;SDS011;40978;52.850;6.506;2023-03-23T01:06:39;6.65;;;4.68;;
55082;SDS011;40978;52.850;6.506;2023-03-23T01:09:08;6.40;;;3.95;;
55082;SDS011;40978;52.850;6.506;2023-03-23T01:11:39;8.02;;;4.28;;
55082;SDS011;40978;52.850;6.506;2023-03-23T01:14:09;6.72;;;3.72;;
55082;SDS011;40978;52.850;6.506;2023-03-23T01:16:35;7.85;;;3.75;;
55082;SDS011;40978;52.850;6.506;2023-03-23T01:19:01;7.05;;;3.55;;
55082;SDS011;40978;52.850;6.506;2023-03-23T01:21:27;8.20;;;3.90;;
55082;SDS011;40978;52.850;6.506;2023-03-23T01:23:53;7.43;;;3.97;;
55082;SDS011;40978;52.850;6.506;2023-03-23T01:26:20;7.05;;;3.80;;
55082;SDS011;40978;52.850;6.506;2023-03-23T01:28:48;6.68;;;3.53;;
55082;SDS011;40978;52.850;6.506;2023-03-23T01:31:15;5.97;;;3.33;;
55082;SDS011;40978;52.850;6.506;2023-03-23T01:33:43;4.47;;;3.70;;
55082;SDS011;40978;52.850;6.506;2023-03-23T01:36:13;6.18;;;3.83;;
55082;SDS011;40978;52.850;6.506;2023-03-23T01:38:42;7.07;;;2.95;;
55082;SDS011;40978;52.850;6.506;2023-03-23T01:41:09;7.40;;;3.72;;
55082;SDS011;40978;52.850;6.506;2023-03-23T01:43:36;8.40;;;3.47;;
55082;SDS011;40978;52.850;6.506;2023-03-23T01:46:01;5.22;;;3.08;;
55082;SDS011;40978;52.850;6.506;2023-03-23T01:48:28;6.28;;;3.22;;
55082;SDS011;40978;52.850;6.506;2023-03-23T01:50:58;6.22;;;3.65;;
55082;SDS011;40978;52.850;6.506;2023-03-23T01:53:31;5.80;;;3.40;;
55082;SDS011;40978;52.850;6.506;2023-03-23T01:56:02;5.68;;;3.42;;
55082;SDS011;40978;52.850;6.506;2023-03-23T01:58:30;5.43;;;3.28;;
55082;SDS011;40978;52.850;6.506;2023-03-23T02:00:58;6.93;;;3.25;;
55082;SDS011;40978;52.850;6.506;2023-03-23T02:03:28;5.07;;;3.10;;
55082;SDS011;40978;52.850;6.506;2023-03-23T02:05:56;7.22;;;3.88;;
55082;SDS011;40978;52.850;6.506;2023-03-23T02:08:28;7.65;;;3.60;;
55082;SDS011;40978;52.850;6.506;2023-03-23T02:10:57;8.23;;;3.03;;
55082;SDS011;40978;52.850;6.506;2023-03-23T02:13:23;5.85;;;3.55;;
55082;SDS011;40978;52.850;6.506;2023-03-23T02:15:56;6.07;;;3.22;;
55082;SDS011;40978;52.850;6.506;2023-03-23T02:29:42;6.45;;;2.72;;
55082;SDS011;40978;52.850;6.506;2023-03-23T02:32:50;4.75;;;2.70;;
55082;SDS011;40978;52.850;6.506;2023-03-23T02:38:15;4.70;;;2.88;;
55082;SDS011;40978;52.850;6.506;2023-03-23T02:41:06;7.88;;;3.22;;
55082;SDS011;40978;52.850;6.506;2023-03-23T02:43:36;6.18;;;3.20;;
55082;SDS011;40978;52.850;6.506;2023-03-23T02:46:09;4.18;;;2.72;;
55082;SDS011;40978;52.850;6.506;2023-03-23T02:48:36;5.00;;;2.67;;
55082;SDS011;40978;52.850;6.506;2023-03-23T02:51:04;9.30;;;3.00;;
55082;SDS011;40978;52.850;6.506;2023-03-23T02:53:33;4.78;;;2.50;;
55082;SDS011;40978;52.850;6.506;2023-03-23T02:56:02;3.42;;;2.33;;
55082;SDS011;40978;52.850;6.506;2023-03-23T02:58:31;6.00;;;2.92;;
55082;SDS011;40978;52.850;6.506;2023-03-23T03:00:57;4.22;;;2.40;;
55082;SDS011;40978;52.850;6.506;2023-03-23T03:03:25;5.93;;;2.55;;
55082;SDS011;40978;52.850;6.506;2023-03-23T03:08:52;3.95;;;2.58;;
55082;SDS011;40978;52.850;6.506;2023-03-23T03:11:24;4.72;;;2.63;;
55082;SDS011;40978;52.850;6.506;2023-03-23T03:13:55;4.43;;;2.88;;
55082;SDS011;40978;52.850;6.506;2023-03-23T03:16:43;6.05;;;2.72;;
55082;SDS011;40978;52.850;6.506;2023-03-23T03:19:31;6.70;;;2.67;;
55082;SDS011;40978;52.850;6.506;2023-03-23T03:22:00;4.13;;;2.80;;
55082;SDS011;40978;52.850;6.506;2023-03-23T03:24:27;4.10;;;2.80;;
55082;SDS011;40978;52.850;6.506;2023-03-23T03:26:56;8.15;;;2.60;;
55082;SDS011;40978;52.850;6.506;2023-03-23T03:29:25;5.07;;;2.55;;
55082;SDS011;40978;52.850;6.506;2023-03-23T03:31:55;7.43;;;2.60;;
55082;SDS011;40978;52.850;6.506;2023-03-23T03:34:23;4.25;;;2.60;;
55082;SDS011;40978;52.850;6.506;2023-03-23T03:36:49;7.85;;;3.50;;
55082;SDS011;40978;52.850;6.506;2023-03-23T03:39:18;6.60;;;2.85;;
55082;SDS011;40978;52.850;6.506;2023-03-23T03:41:46;5.05;;;3.10;;
55082;SDS011;40978;52.850;6.506;2023-03-23T03:44:12;4.57;;;3.00;;
55082;SDS011;40978;52.850;6.506;2023-03-23T03:46:38;4.22;;;3.08;;
55082;SDS011;40978;52.850;6.506;2023-03-23T03:49:05;6.22;;;3.33;;
55082;SDS011;40978;52.850;6.506;2023-03-23T03:51:33;6.50;;;3.20;;
55082;SDS011;40978;52.850;6.506;2023-03-23T03:54:00;5.00;;;3.08;;
55082;SDS011;40978;52.850;6.506;2023-03-23T03:56:26;6.00;;;2.85;;
55082;SDS011;40978;52.850;6.506;2023-03-23T03:58:52;4.00;;;2.65;;
55082;SDS011;40978;52.850;6.506;2023-03-23T04:01:19;4.53;;;2.70;;
55082;SDS011;40978;52.850;6.506;2023-03-23T04:03:48;6.32;;;3.58;;
55082;SDS011;40978;52.850;6.506;2023-03-23T04:06:14;5.20;;;3.75;;
55082;SDS011;40978;52.850;6.506;2023-03-23T04:08:41;5.55;;;3.72;;
55082;SDS011;40978;52.850;6.506;2023-03-23T04:11:08;3.97;;;3.08;;
55082;SDS011;40978;52.850;6.506;2023-03-23T04:13:35;5.93;;;3.97;;
55082;SDS011;40978;52.850;6.506;2023-03-23T04:16:01;4.85;;;3.15;;
55082;SDS011;40978;52.850;6.506;2023-03-23T04:18:27;6.93;;;3.50;;
55082;SDS011;40978;52.850;6.506;2023-03-23T04:20:54;5.53;;;3.67;;
55082;SDS011;40978;52.850;6.506;2023-03-23T04:23:24;5.97;;;3.40;;
55082;SDS011;40978;52.850;6.506;2023-03-23T04:25:50;6.32;;;3.53;;
55082;SDS011;40978;52.850;6.506;2023-03-23T04:28:18;7.03;;;3.33;;
55082;SDS011;40978;52.850;6.506;2023-03-23T04:30:48;8.25;;;3.97;;
55082;SDS011;40978;52.850;6.506;2023-03-23T04:33:18;6.65;;;3.78;;
55082;SDS011;40978;52.850;6.506;2023-03-23T04:35:44;5.90;;;3.63;;
55082;SDS011;40978;52.850;6.506;2023-03-23T04:38:13;7.43;;;3.42;;
55082;SDS011;40978;52.850;6.506;2023-03-23T04:40:45;6.95;;;4.00;;
55082;SDS011;40978;52.850;6.506;2023-03-23T04:43:12;6.55;;;3.63;;
55082;SDS011;40978;52.850;6.506;2023-03-23T04:45:40;8.40;;;4.03;;
55082;SDS011;40978;52.850;6.506;2023-03-23T04:48:11;9.52;;;4.03;;
55082;SDS011;40978;52.850;6.506;2023-03-23T04:50:37;6.78;;;4.00;;
55082;SDS011;40978;52.850;6.506;2023-03-23T04:53:03;7.85;;;3.97;;
55082;SDS011;40978;52.850;6.506;2023-03-23T04:55:30;9.55;;;4.88;;
55082;SDS011;40978;52.850;6.506;2023-03-23T04:58:01;7.72;;;3.67;;
55082;SDS011;40978;52.850;6.506;2023-03-23T05:00:31;4.75;;;2.17;;
55082;SDS011;40978;52.850;6.506;2023-03-23T05:03:00;3.97;;;1.55;;
55082;SDS011;40978;52.850;6.506;2023-03-23T05:05:26;6.70;;;2.47;;
55082;SDS011;40978;52.850;6.506;2023-03-23T05:07:54;8.50;;;1.77;;
55082;SDS011;40978;52.850;6.506;2023-03-23T05:10:20;9.32;;;1.58;;
55082;SDS011;40978;52.850;6.506;2023-03-23T05:12:46;5.18;;;1.75;;
55082;SDS011;40978;52.850;6.506;2023-03-23T05:15:12;7.30;;;2.08;;
55082;SDS011;40978;52.850;6.506;2023-03-23T05:17:39;5.50;;;1.70;;
55082;SDS011;40978;52.850;6.506;2023-03-23T05:20:10;7.03;;;1.42;;
55082;SDS011;40978;52.850;6.506;2023-03-23T05:22:37;7.03;;;1.90;;
55082;SDS011;40978;52.850;6.506;2023-03-23T05:25:04;10.57;;;2.20;;
55082;SDS011;40978;52.850;6.506;2023-03-23T05:27:34;7.40;;;1.98;;
55082;SDS011;40978;52.850;6.506;2023-03-23T05:30:00;8.35;;;2.15;;
55082;SDS011;40978;52.850;6.506;2023-03-23T05:32:26;11.85;;;2.15;;
55082;SDS011;40978;52.850;6.506;2023-03-23T05:34:59;9.95;;;2.47;;
55082;SDS011;40978;52.850;6.506;2023-03-23T05:37:26;13.60;;;2.75;;
55082;SDS011;40978;52.850;6.506;2023-03-23T05:39:57;12.63;;;2.67;;
55082;SDS011;40978;52.850;6.506;2023-03-23T05:42:30;9.07;;;2.22;;
55082;SDS011;40978;52.850;6.506;2023-03-23T05:44:56;10.18;;;2.50;;
55082;SDS011;40978;52.850;6.506;2023-03-23T05:47:23;10.85;;;1.92;;
55082;SDS011;40978;52.850;6.506;2023-03-23T05:49:50;10.07;;;2.25;;
55082;SDS011;40978;52.850;6.506;2023-03-23T05:52:17;11.38;;;1.85;;
55082;SDS011;40978;52.850;6.506;2023-03-23T05:54:43;10.48;;;1.92;;
55082;SDS011;40978;52.850;6.506;2023-03-23T05:57:10;9.25;;;2.00;;
55082;SDS011;40978;52.850;6.506;2023-03-23T05:59:36;6.70;;;1.60;;
55082;SDS011;40978;52.850;6.506;2023-03-23T06:02:02;6.80;;;1.48;;
55082;SDS011;40978;52.850;6.506;2023-03-23T06:04:29;5.95;;;1.40;;
55082;SDS011;40978;52.850;6.506;2023-03-23T06:06:55;8.77;;;1.55;;
55082;SDS011;40978;52.850;6.506;2023-03-23T06:09:21;8.15;;;1.35;;
55082;SDS011;40978;52.850;6.506;2023-03-23T06:11:48;8.13;;;1.85;;
55082;SDS011;40978;52.850;6.506;2023-03-23T06:14:14;9.88;;;1.60;;
55082;SDS011;40978;52.850;6.506;2023-03-23T06:16:41;7.07;;;1.60;;
55082;SDS011;40978;52.850;6.506;2023-03-23T06:19:07;7.10;;;1.63;;
55082;SDS011;40978;52.850;6.506;2023-03-23T06:21:32;10.57;;;2.83;;
55082;SDS011;40978;52.850;6.506;2023-03-23T06:23:59;9.18;;;2.00;;
55082;SDS011;40978;52.850;6.506;2023-03-23T06:26:30;10.77;;;1.98;;
55082;SDS011;40978;52.850;6.506;2023-03-23T06:29:04;10.30;;;2.20;;
55082;SDS011;40978;52.850;6.506;2023-03-23T06:31:37;11.13;;;2.42;;
55082;SDS011;40978;52.850;6.506;2023-03-23T06:34:12;11.23;;;2.05;;
55082;SDS011;40978;52.850;6.506;2023-03-23T06:36:38;10.10;;;2.03;;
55082;SDS011;40978;52.850;6.506;2023-03-23T06:39:04;11.50;;;2.05;;
55082;SDS011;40978;52.850;6.506;2023-03-23T06:41:30;16.17;;;2.40;;
55082;SDS011;40978;52.850;6.506;2023-03-23T06:43:57;15.60;;;2.70;;
55082;SDS011;40978;52.850;6.506;2023-03-23T06:46:23;17.63;;;2.42;;
55082;SDS011;40978;52.850;6.506;2023-03-23T06:48:49;19.83;;;3.65;;
55082;SDS011;40978;52.850;6.506;2023-03-23T06:51:16;19.00;;;3.45;;
55082;SDS011;40978;52.850;6.506;2023-03-23T06:53:43;17.92;;;3.33;;
55082;SDS011;40978;52.850;6.506;2023-03-23T06:56:09;14.93;;;2.67;;
55082;SDS011;40978;52.850;6.506;2023-03-23T06:58:35;17.95;;;3.55;;
55082;SDS011;40978;52.850;6.506;2023-03-23T07:01:01;22.10;;;3.30;;
55082;SDS011;40978;52.850;6.506;2023-03-23T07:03:27;20.08;;;2.97;;
55082;SDS011;40978;52.850;6.506;2023-03-23T07:05:53;19.63;;;3.42;;
55082;SDS011;40978;52.850;6.506;2023-03-23T07:08:20;18.65;;;3.75;;
55082;SDS011;40978;52.850;6.506;2023-03-23T07:10:46;23.58;;;3.15;;
55082;SDS011;40978;52.850;6.506;2023-03-23T07:13:12;21.35;;;3.85;;
55082;SDS011;40978;52.850;6.506;2023-03-23T07:15:38;14.23;;;3.25;;
55082;SDS011;40978;52.850;6.506;2023-03-23T07:18:05;20.05;;;3.10;;
55082;SDS011;40978;52.850;6.506;2023-03-23T07:20:34;22.73;;;3.58;;
55082;SDS011;40978;52.850;6.506;2023-03-23T07:23:01;13.18;;;2.67;;
55082;SDS011;40978;52.850;6.506;2023-03-23T07:25:27;15.43;;;2.80;;
55082;SDS011;40978;52.850;6.506;2023-03-23T07:27:53;17.05;;;3.20;;
55082;SDS011;40978;52.850;6.506;2023-03-23T07:30:19;16.52;;;3.38;;
55082;SDS011;40978;52.850;6.506;2023-03-23T07:32:44;17.30;;;3.42;;
55082;SDS011;40978;52.850;6.506;2023-03-23T07:35:10;17.05;;;2.92;;
55082;SDS011;40978;52.850;6.506;2023-03-23T07:37:37;16.67;;;2.83;;
55082;SDS011;40978;52.850;6.506;2023-03-23T07:40:03;18.70;;;3.45;;
55082;SDS011;40978;52.850;6.506;2023-03-23T07:42:33;19.25;;;3.38;;
55082;SDS011;40978;52.850;6.506;2023-03-23T07:44:59;15.90;;;2.90;;
55082;SDS011;40978;52.850;6.506;2023-03-23T07:47:25;14.68;;;2.97;;
55082;SDS011;40978;52.850;6.506;2023-03-23T07:49:51;17.27;;;3.10;;
55082;SDS011;40978;52.850;6.506;2023-03-23T07:52:16;17.00;;;3.88;;
55082;SDS011;40978;52.850;6.506;2023-03-23T07:54:42;16.63;;;3.50;;
55082;SDS011;40978;52.850;6.506;2023-03-23T07:57:08;25.25;;;4.68;;
55082;SDS011;40978;52.850;6.506;2023-03-23T07:59:34;21.58;;;3.72;;
55082;SDS011;40978;52.850;6.506;2023-03-23T08:02:00;25.08;;;4.18;;
55082;SDS011;40978;52.850;6.506;2023-03-23T08:04:26;22.63;;;4.22;;
55082;SDS011;40978;52.850;6.506;2023-03-23T08:06:52;18.45;;;4.07;;
55082;SDS011;40978;52.850;6.506;2023-03-23T08:09:18;22.63;;;4.75;;
55082;SDS011;40978;52.850;6.506;2023-03-23T08:11:43;23.67;;;4.60;;
55082;SDS011;40978;52.850;6.506;2023-03-23T08:14:09;25.08;;;4.45;;
55082;SDS011;40978;52.850;6.506;2023-03-23T08:16:35;16.08;;;3.63;;
55082;SDS011;40978;52.850;6.506;2023-03-23T08:19:00;21.05;;;4.50;;
55082;SDS011;40978;52.850;6.506;2023-03-23T08:21:27;20.35;;;4.20;;
55082;SDS011;40978;52.850;6.506;2023-03-23T08:23:53;22.48;;;4.30;;
55082;SDS011;40978;52.850;6.506;2023-03-23T08:26:19;18.85;;;3.20;;
55082;SDS011;40978;52.850;6.506;2023-03-23T08:28:46;21.85;;;3.80;;
55082;SDS011;40978;52.850;6.506;2023-03-23T08:31:12;20.00;;;3.58;;
55082;SDS011;40978;52.850;6.506;2023-03-23T08:33:40;14.18;;;2.90;;
55082;SDS011;40978;52.850;6.506;2023-03-23T08:36:06;21.08;;;3.53;;
55082;SDS011;40978;52.850;6.506;2023-03-23T08:38:33;17.60;;;3.30;;
55082;SDS011;40978;52.850;6.506;2023-03-23T08:41:00;18.25;;;3.50;;
55082;SDS011;40978;52.850;6.506;2023-03-23T08:43:29;16.23;;;3.22;;
55082;SDS011;40978;52.850;6.506;2023-03-23T08:45:56;19.05;;;3.17;;
55082;SDS011;40978;52.850;6.506;2023-03-23T08:48:22;15.38;;;3.42;;
55082;SDS011;40978;52.850;6.506;2023-03-23T08:50:49;20.38;;;4.40;;
55082;SDS011;40978;52.850;6.506;2023-03-23T08:53:17;18.52;;;3.95;;
55082;SDS011;40978;52.850;6.506;2023-03-23T08:55:43;17.00;;;3.58;;
55082;SDS011;40978;52.850;6.506;2023-03-23T08:58:09;19.80;;;3.90;;
55082;SDS011;40978;52.850;6.506;2023-03-23T09:00:35;21.10;;;3.67;;
55082;SDS011;40978;52.850;6.506;2023-03-23T09:03:00;16.20;;;3.92;;
55082;SDS011;40978;52.850;6.506;2023-03-23T09:05:27;16.88;;;4.40;;
55082;SDS011;40978;52.850;6.506;2023-03-23T09:07:54;19.63;;;4.65;;
55082;SDS011;40978;52.850;6.506;2023-03-23T09:10:24;18.70;;;4.75;;
55082;SDS011;40978;52.850;6.506;2023-03-23T09:12:52;20.00;;;5.10;;
55082;SDS011;40978;52.850;6.506;2023-03-23T09:15:19;17.50;;;3.92;;
55082;SDS011;40978;52.850;6.506;2023-03-23T09:17:45;24.02;;;4.35;;
55082;SDS011;40978;52.850;6.506;2023-03-23T09:20:17;19.92;;;4.85;;
55082;SDS011;40978;52.850;6.506;2023-03-23T09:22:46;15.48;;;3.92;;
55082;SDS011;40978;52.850;6.506;2023-03-23T09:25:15;15.13;;;3.80;;
55082;SDS011;40978;52.850;6.506;2023-03-23T09:27:46;17.17;;;4.18;;
55082;SDS011;40978;52.850;6.506;2023-03-23T09:30:17;23.65;;;4.25;;
55082;SDS011;40978;52.850;6.506;2023-03-23T09:32:44;17.20;;;3.95;;
55082;SDS011;40978;52.850;6.506;2023-03-23T09:35:10;24.08;;;4.80;;
55082;SDS011;40978;52.850;6.506;2023-03-23T09:37:38;14.23;;;3.40;;
55082;SDS011;40978;52.850;6.506;2023-03-23T09:40:06;16.70;;;3.80;;
55082;SDS011;40978;52.850;6.506;2023-03-23T09:45:41;16.77;;;3.35;;
55082;SDS011;40978;52.850;6.506;2023-03-23T09:51:43;15.93;;;3.65;;
55082;SDS011;40978;52.850;6.506;2023-03-23T09:54:03;17.10;;;3.55;;
55082;SDS011;40978;52.850;6.506;2023-03-23T09:56:37;15.88;;;3.33;;
55082;SDS011;40978;52.850;6.506;2023-03-23T10:04:58;12.80;;;3.15;;
55082;SDS011;40978;52.850;6.506;2023-03-23T10:07:51;15.98;;;3.35;;
55082;SDS011;40978;52.850;6.506;2023-03-23T10:10:17;12.27;;;3.17;;
55082;SDS011;40978;52.850;6.506;2023-03-23T10:12:59;9.38;;;2.45;;
55082;SDS011;40978;52.850;6.506;2023-03-23T10:15:30;12.50;;;3.28;;
55082;SDS011;40978;52.850;6.506;2023-03-23T10:18:04;12.52;;;2.97;;
55082;SDS011;40978;52.850;6.506;2023-03-23T10:23:23;13.95;;;3.38;;
55082;SDS011;40978;52.850;6.506;2023-03-23T10:25:58;14.23;;;3.00;;
55082;SDS011;40978;52.850;6.506;2023-03-23T10:28:39;15.00;;;3.25;;
55082;SDS011;40978;52.850;6.506;2023-03-23T10:31:17;10.48;;;2.28;;
55082;SDS011;40978;52.850;6.506;2023-03-23T10:33:48;10.90;;;2.38;;
55082;SDS011;40978;52.850;6.506;2023-03-23T10:36:26;11.60;;;2.60;;
55082;SDS011;40978;52.850;6.506;2023-03-23T10:41:29;7.28;;;1.83;;
55082;SDS011;40978;52.850;6.506;2023-03-23T10:43:56;7.82;;;1.90;;
55082;SDS011;40978;52.850;6.506;2023-03-23T10:49:22;10.05;;;2.35;;
55082;SDS011;40978;52.850;6.506;2023-03-23T10:51:56;8.52;;;1.95;;
55082;SDS011;40978;52.850;6.506;2023-03-23T10:54:36;9.18;;;2.03;;
55082;SDS011;40978;52.850;6.506;2023-03-23T11:00:03;10.07;;;2.72;;
55082;SDS011;40978;52.850;6.506;2023-03-23T11:02:43;9.55;;;2.45;;
55082;SDS011;40978;52.850;6.506;2023-03-23T11:05:40;10.52;;;2.20;;
55082;SDS011;40978;52.850;6.506;2023-03-23T11:08:12;8.25;;;1.95;;
55082;SDS011;40978;52.850;6.506;2023-03-23T11:10:49;11.27;;;2.13;;
55082;SDS011;40978;52.850;6.506;2023-03-23T11:13:18;6.90;;;1.60;;
55082;SDS011;40978;52.850;6.506;2023-03-23T11:15:46;10.23;;;2.22;;
55082;SDS011;40978;52.850;6.506;2023-03-23T11:18:20;8.55;;;2.10;;
55082;SDS011;40978;52.850;6.506;2023-03-23T11:20:49;9.93;;;2.40;;
55082;SDS011;40978;52.850;6.506;2023-03-23T11:25:57;11.20;;;2.50;;
55082;SDS011;40978;52.850;6.506;2023-03-23T11:28:34;13.77;;;2.45;;
55082;SDS011;40978;52.850;6.506;2023-03-23T11:31:02;12.02;;;2.40;;
55082;SDS011;40978;52.850;6.506;2023-03-23T11:33:35;9.30;;;2.47;;
55082;SDS011;40978;52.850;6.506;2023-03-23T11:36:17;9.38;;;2.20;;
55082;SDS011;40978;52.850;6.506;2023-03-23T11:38:43;10.30;;;1.95;;
55082;SDS011;40978;52.850;6.506;2023-03-23T11:41:10;9.25;;;2.13;;
55082;SDS011;40978;52.850;6.506;2023-03-23T11:43:40;7.30;;;1.80;;
55082;SDS011;40978;52.850;6.506;2023-03-23T11:46:12;9.50;;;1.92;;
55082;SDS011;40978;52.850;6.506;2023-03-23T11:49:08;8.25;;;1.75;;
55082;SDS011;40978;52.850;6.506;2023-03-23T11:51:51;7.38;;;2.30;;
55082;SDS011;40978;52.850;6.506;2023-03-23T11:56:55;8.85;;;1.90;;
55082;SDS011;40978;52.850;6.506;2023-03-23T11:59:29;8.00;;;1.88;;
55082;SDS011;40978;52.850;6.506;2023-03-23T12:16:07;12.77;;;2.60;;
55082;SDS011;40978;52.850;6.506;2023-03-23T12:19:16;11.98;;;2.70;;
55082;SDS011;40978;52.850;6.506;2023-03-23T12:24:49;9.85;;;2.33;;
55082;SDS011;40978;52.850;6.506;2023-03-23T12:33:21;11.88;;;2.45;;
55082;SDS011;40978;52.850;6.506;2023-03-23T12:39:09;12.00;;;2.65;;
55082;SDS011;40978;52.850;6.506;2023-03-23T12:41:51;10.43;;;2.50;;
55082;SDS011;40978;52.850;6.506;2023-03-23T12:44:33;8.73;;;2.22;;
55082;SDS011;40978;52.850;6.506;2023-03-23T12:49:43;12.15;;;2.25;;
55082;SDS011;40978;52.850;6.506;2023-03-23T12:52:24;12.10;;;2.03;;
55082;SDS011;40978;52.850;6.506;2023-03-23T13:02:52;10.98;;;2.55;;
55082;SDS011;40978;52.850;6.506;2023-03-23T13:05:36;9.98;;;2.35;;
55082;SDS011;40978;52.850;6.506;2023-03-23T13:08:21;15.95;;;2.75;;
55082;SDS011;40978;52.850;6.506;2023-03-23T13:13:23;9.93;;;2.03;;
55082;SDS011;40978;52.850;6.506;2023-03-23T13:16:14;11.80;;;2.65;;
55082;SDS011;40978;52.850;6.506;2023-03-23T13:18:56;9.07;;;2.60;;
55082;SDS011;40978;52.850;6.506;2023-03-23T13:21:28;12.05;;;2.90;;
55082;SDS011;40978;52.850;6.506;2023-03-23T13:24:01;10.70;;;2.63;;
55082;SDS011;40978;52.850;6.506;2023-03-23T13:26:36;13.15;;;3.72;;
55082;SDS011;40978;52.850;6.506;2023-03-23T13:29:17;12.60;;;3.60;;
55082;SDS011;40978;52.850;6.506;2023-03-23T13:31:45;10.68;;;3.28;;
55082;SDS011;40978;52.850;6.506;2023-03-23T13:36:52;14.80;;;6.65;;
55082;SDS011;40978;52.850;6.506;2023-03-23T13:39:21;9.80;;;2.90;;
55082;SDS011;40978;52.850;6.506;2023-03-23T13:44:26;12.32;;;2.72;;
55082;SDS011;40978;52.850;6.506;2023-03-23T13:47:06;10.27;;;2.28;;
55082;SDS011;40978;52.850;6.506;2023-03-23T13:49:44;10.70;;;2.17;;
55082;SDS011;40978;52.850;6.506;2023-03-23T13:52:17;10.75;;;2.17;;
55082;SDS011;40978;52.850;6.506;2023-03-23T13:54:50;9.25;;;2.22;;
55082;SDS011;40978;52.850;6.506;2023-03-23T13:57:35;12.18;;;2.08;;
55082;SDS011;40978;52.850;6.506;2023-03-23T14:00:25;10.00;;;2.13;;
55082;SDS011;40978;52.850;6.506;2023-03-23T14:06:05;9.90;;;2.47;;
55082;SDS011;40978;52.850;6.506;2023-03-23T14:08:38;11.63;;;2.67;;
55082;SDS011;40978;52.850;6.506;2023-03-23T14:13:48;9.40;;;2.38;;
55082;SDS011;40978;52.850;6.506;2023-03-23T14:16:39;8.65;;;2.20;;
55082;SDS011;40978;52.850;6.506;2023-03-23T14:19:14;12.32;;;2.45;;
55082;SDS011;40978;52.850;6.506;2023-03-23T14:21:50;8.73;;;2.22;;
55082;SDS011;40978;52.850;6.506;2023-03-23T14:24:20;10.35;;;2.45;;
55082;SDS011;40978;52.850;6.506;2023-03-23T14:26:48;14.65;;;2.50;;
55082;SDS011;40978;52.850;6.506;2023-03-23T14:29:17;10.68;;;2.20;;
55082;SDS011;40978;52.850;6.506;2023-03-23T14:31:44;11.40;;;2.38;;
55082;SDS011;40978;52.850;6.506;2023-03-23T14:34:18;9.13;;;2.08;;
55082;SDS011;40978;52.850;6.506;2023-03-23T14:36:45;7.78;;;2.30;;
55082;SDS011;40978;52.850;6.506;2023-03-23T14:39:20;8.15;;;1.70;;
55082;SDS011;40978;52.850;6.506;2023-03-23T14:41:46;9.10;;;1.83;;
55082;SDS011;40978;52.850;6.506;2023-03-23T14:44:14;10.25;;;2.80;;
55082;SDS011;40978;52.850;6.506;2023-03-23T14:46:45;7.75;;;1.85;;
55082;SDS011;40978;52.850;6.506;2023-03-23T14:49:13;12.05;;;2.45;;
55082;SDS011;40978;52.850;6.506;2023-03-23T14:51:52;11.15;;;2.63;;
55082;SDS011;40978;52.850;6.506;2023-03-23T14:54:23;9.63;;;2.40;;
55082;SDS011;40978;52.850;6.506;2023-03-23T14:56:53;12.57;;;2.65;;
55082;SDS011;40978;52.850;6.506;2023-03-23T14:59:20;13.38;;;2.45;;
55082;SDS011;40978;52.850;6.506;2023-03-23T15:01:47;10.77;;;2.95;;
55082;SDS011;40978;52.850;6.506;2023-03-23T15:06:41;11.20;;;2.47;;
55082;SDS011;40978;52.850;6.506;2023-03-23T15:09:12;8.25;;;1.80;;
55082;SDS011;40978;52.850;6.506;2023-03-23T15:11:43;9.48;;;2.30;;
55082;SDS011;40978;52.850;6.506;2023-03-23T15:14:19;7.72;;;2.10;;
55082;SDS011;40978;52.850;6.506;2023-03-23T15:16:48;6.43;;;1.65;;
55082;SDS011;40978;52.850;6.506;2023-03-23T15:19:21;10.23;;;2.00;;
55082;SDS011;40978;52.850;6.506;2023-03-23T15:21:52;16.42;;;2.08;;
55082;SDS011;40978;52.850;6.506;2023-03-23T15:26:53;11.23;;;2.30;;
55082;SDS011;40978;52.850;6.506;2023-03-23T15:29:22;10.55;;;2.45;;
55082;SDS011;40978;52.850;6.506;2023-03-23T15:31:52;8.75;;;2.30;;
55082;SDS011;40978;52.850;6.506;2023-03-23T15:36:51;11.20;;;2.00;;
55082;SDS011;40978;52.850;6.506;2023-03-23T15:39:20;12.55;;;2.45;;
55082;SDS011;40978;52.850;6.506;2023-03-23T15:41:47;10.73;;;2.15;;
55082;SDS011;40978;52.850;6.506;2023-03-23T15:44:22;13.77;;;2.42;;
55082;SDS011;40978;52.850;6.506;2023-03-23T15:47:01;10.50;;;1.95;;
55082;SDS011;40978;52.850;6.506;2023-03-23T15:49:38;10.68;;;2.50;;
55082;SDS011;40978;52.850;6.506;2023-03-23T15:52:07;10.45;;;2.58;;
55082;SDS011;40978;52.850;6.506;2023-03-23T15:54:35;12.32;;;2.78;;
55082;SDS011;40978;52.850;6.506;2023-03-23T15:57:01;11.27;;;2.53;;
55082;SDS011;40978;52.850;6.506;2023-03-23T15:59:27;11.45;;;2.50;;
55082;SDS011;40978;52.850;6.506;2023-03-23T16:01:52;8.68;;;2.13;;
55082;SDS011;40978;52.850;6.506;2023-03-23T16:04:18;11.07;;;2.55;;
55082;SDS011;40978;52.850;6.506;2023-03-23T16:06:45;9.45;;;2.03;;
55082;SDS011;40978;52.850;6.506;2023-03-23T16:09:16;12.10;;;2.05;;
55082;SDS011;40978;52.850;6.506;2023-03-23T16:11:43;9.00;;;2.45;;
55082;SDS011;40978;52.850;6.506;2023-03-23T16:14:09;10.10;;;2.15;;
55082;SDS011;40978;52.850;6.506;2023-03-23T16:16:40;10.40;;;2.30;;
55082;SDS011;40978;52.850;6.506;2023-03-23T16:19:10;9.55;;;2.00;;
55082;SDS011;40978;52.850;6.506;2023-03-23T16:21:37;9.77;;;2.28;;
55082;SDS011;40978;52.850;6.506;2023-03-23T16:24:03;9.68;;;2.00;;
55082;SDS011;40978;52.850;6.506;2023-03-23T16:26:29;11.10;;;2.50;;
55082;SDS011;40978;52.850;6.506;2023-03-23T16:28:55;10.02;;;2.50;;
55082;SDS011;40978;52.850;6.506;2023-03-23T16:31:21;13.05;;;3.22;;
55082;SDS011;40978;52.850;6.506;2023-03-23T16:33:47;9.55;;;1.90;;
55082;SDS011;40978;52.850;6.506;2023-03-23T16:36:12;11.93;;;2.47;;
55082;SDS011;40978;52.850;6.506;2023-03-23T16:38:39;9.43;;;3.00;;
55082;SDS011;40978;52.850;6.506;2023-03-23T16:41:06;10.88;;;2.42;;